sensor_id;sensor_type;location;lat;lon;timestamp;P1;durP1;ratioP1;P2;durP2;ratioP2
73428;SDS011;61643;49.564;17.412;2022-10-16T00:01:10;18.77;;;10.03;;
73428;SDS011;61643;49.564;17.412;2022-10-16T00:03:39;19.15;;;10.25;;
73428;SDS011;61643;49.564;17.412;2022-10-16T00:06:05;14.10;;;8.00;;
73428;SDS011;61643;49.564;17.412;2022-10-16T00:08:31;17.40;;;8.52;;
73428;SDS011;61643;49.564;17.412;2022-10-16T00:11:04;16.33;;;9.35;;
73428;SDS011;61643;49.564;17.412;2022-10-16T00:13:30;17.73;;;9.65;;
73428;SDS011;61643;49.564;17.412;2022-10-16T00:15:57;17.55;;;9.73;;
73428;SDS011;61643;49.564;17.412;2022-10-16T00:18:24;18.17;;;9.75;;
73428;SDS011;61643;49.564;17.412;2022-10-16T00:20:50;18.17;;;9.70;;
73428;SDS011;61643;49.564;17.412;2022-10-16T00:23:16;16.63;;;9.57;;
73428;SDS011;61643;49.564;17.412;2022-10-16T00:25:41;16.27;;;9.67;;
73428;SDS011;61643;49.564;17.412;2022-10-16T00:28:06;15.43;;;8.93;;
73428;SDS011;61643;49.564;17.412;2022-10-16T00:30:32;17.83;;;9.90;;
73428;SDS011;61643;49.564;17.412;2022-10-16T00:32:57;17.37;;;9.93;;
73428;SDS011;61643;49.564;17.412;2022-10-16T00:35:22;17.53;;;9.27;;
73428;SDS011;61643;49.564;17.412;2022-10-16T00:37:48;18.65;;;9.52;;
73428;SDS011;61643;49.564;17.412;2022-10-16T00:40:13;20.23;;;10.05;;
73428;SDS011;61643;49.564;17.412;2022-10-16T00:42:39;15.02;;;9.30;;
73428;SDS011;61643;49.564;17.412;2022-10-16T00:45:05;17.90;;;10.00;;
73428;SDS011;61643;49.564;17.412;2022-10-16T00:47:41;18.75;;;9.90;;
73428;SDS011;61643;49.564;17.412;2022-10-16T00:52:59;18.65;;;8.68;;
73428;SDS011;61643;49.564;17.412;2022-10-16T00:55:27;15.30;;;9.18;;
73428;SDS011;61643;49.564;17.412;2022-10-16T01:00:22;16.25;;;8.85;;
73428;SDS011;61643;49.564;17.412;2022-10-16T01:02:53;13.98;;;8.88;;
73428;SDS011;61643;49.564;17.412;2022-10-16T01:05:21;17.60;;;9.48;;
73428;SDS011;61643;49.564;17.412;2022-10-16T01:07:55;16.05;;;8.82;;
73428;SDS011;61643;49.564;17.412;2022-10-16T01:10:57;15.93;;;8.98;;
73428;SDS011;61643;49.564;17.412;2022-10-16T01:13:35;17.15;;;9.27;;
73428;SDS011;61643;49.564;17.412;2022-10-16T01:19:14;15.55;;;9.00;;
73428;SDS011;61643;49.564;17.412;2022-10-16T01:21:46;17.42;;;8.80;;
73428;SDS011;61643;49.564;17.412;2022-10-16T01:37:40;17.88;;;10.45;;
73428;SDS011;61643;49.564;17.412;2022-10-16T01:40:09;29.15;;;12.65;;
73428;SDS011;61643;49.564;17.412;2022-10-16T01:42:38;18.25;;;9.93;;
73428;SDS011;61643;49.564;17.412;2022-10-16T01:45:07;17.88;;;9.80;;
73428;SDS011;61643;49.564;17.412;2022-10-16T01:47:38;16.25;;;9.68;;
73428;SDS011;61643;49.564;17.412;2022-10-16T01:50:05;16.77;;;9.70;;
73428;SDS011;61643;49.564;17.412;2022-10-16T01:52:34;20.13;;;9.85;;
73428;SDS011;61643;49.564;17.412;2022-10-16T01:55:02;16.13;;;8.88;;
73428;SDS011;61643;49.564;17.412;2022-10-16T01:57:31;17.38;;;9.23;;
73428;SDS011;61643;49.564;17.412;2022-10-16T02:00:00;17.63;;;9.68;;
73428;SDS011;61643;49.564;17.412;2022-10-16T02:02:29;14.57;;;8.75;;
73428;SDS011;61643;49.564;17.412;2022-10-16T02:05:06;18.10;;;9.25;;
73428;SDS011;61643;49.564;17.412;2022-10-16T02:07:39;16.23;;;8.32;;
73428;SDS011;61643;49.564;17.412;2022-10-16T02:10:07;15.25;;;9.00;;
73428;SDS011;61643;49.564;17.412;2022-10-16T02:12:33;16.48;;;8.68;;
73428;SDS011;61643;49.564;17.412;2022-10-16T02:15:04;13.80;;;8.32;;
73428;SDS011;61643;49.564;17.412;2022-10-16T02:17:30;14.20;;;8.93;;
73428;SDS011;61643;49.564;17.412;2022-10-16T02:19:56;13.45;;;8.55;;
73428;SDS011;61643;49.564;17.412;2022-10-16T02:22:56;15.90;;;9.23;;
73428;SDS011;61643;49.564;17.412;2022-10-16T02:30:23;13.95;;;8.27;;
73428;SDS011;61643;49.564;17.412;2022-10-16T02:33:06;14.20;;;8.55;;
73428;SDS011;61643;49.564;17.412;2022-10-16T02:35:34;21.17;;;8.68;;
73428;SDS011;61643;49.564;17.412;2022-10-16T02:38:01;17.13;;;8.27;;
73428;SDS011;61643;49.564;17.412;2022-10-16T02:40:28;14.35;;;8.38;;
73428;SDS011;61643;49.564;17.412;2022-10-16T02:42:54;12.90;;;7.80;;
73428;SDS011;61643;49.564;17.412;2022-10-16T02:45:22;14.68;;;8.40;;
73428;SDS011;61643;49.564;17.412;2022-10-16T02:50:14;14.10;;;8.32;;
73428;SDS011;61643;49.564;17.412;2022-10-16T02:52:39;13.55;;;7.75;;
73428;SDS011;61643;49.564;17.412;2022-10-16T02:55:05;14.32;;;8.13;;
73428;SDS011;61643;49.564;17.412;2022-10-16T02:57:31;15.00;;;8.77;;
73428;SDS011;61643;49.564;17.412;2022-10-16T02:59:56;15.02;;;7.50;;
73428;SDS011;61643;49.564;17.412;2022-10-16T03:02:22;13.07;;;8.32;;
73428;SDS011;61643;49.564;17.412;2022-10-16T03:04:47;14.38;;;8.13;;
73428;SDS011;61643;49.564;17.412;2022-10-16T03:07:13;14.90;;;7.83;;
73428;SDS011;61643;49.564;17.412;2022-10-16T03:09:38;13.73;;;7.90;;
73428;SDS011;61643;49.564;17.412;2022-10-16T03:12:03;12.97;;;7.90;;
73428;SDS011;61643;49.564;17.412;2022-10-16T03:14:29;16.50;;;8.45;;
73428;SDS011;61643;49.564;17.412;2022-10-16T03:16:54;15.53;;;9.13;;
73428;SDS011;61643;49.564;17.412;2022-10-16T03:19:20;14.93;;;8.03;;
73428;SDS011;61643;49.564;17.412;2022-10-16T03:21:45;16.47;;;9.23;;
73428;SDS011;61643;49.564;17.412;2022-10-16T03:24:11;15.13;;;8.40;;
73428;SDS011;61643;49.564;17.412;2022-10-16T03:26:36;17.17;;;8.70;;
73428;SDS011;61643;49.564;17.412;2022-10-16T03:29:02;14.02;;;7.97;;
73428;SDS011;61643;49.564;17.412;2022-10-16T03:31:28;15.45;;;8.77;;
73428;SDS011;61643;49.564;17.412;2022-10-16T03:33:54;17.35;;;8.63;;
73428;SDS011;61643;49.564;17.412;2022-10-16T03:36:19;16.10;;;8.50;;
73428;SDS011;61643;49.564;17.412;2022-10-16T03:38:44;15.03;;;8.03;;
73428;SDS011;61643;49.564;17.412;2022-10-16T03:41:10;15.43;;;8.57;;
73428;SDS011;61643;49.564;17.412;2022-10-16T03:43:35;17.47;;;8.23;;
73428;SDS011;61643;49.564;17.412;2022-10-16T03:46:01;14.27;;;7.93;;
73428;SDS011;61643;49.564;17.412;2022-10-16T03:48:26;15.93;;;8.38;;
73428;SDS011;61643;49.564;17.412;2022-10-16T03:50:51;15.13;;;8.33;;
73428;SDS011;61643;49.564;17.412;2022-10-16T03:53:17;17.83;;;8.40;;
73428;SDS011;61643;49.564;17.412;2022-10-16T03:55:43;13.50;;;7.50;;
73428;SDS011;61643;49.564;17.412;2022-10-16T03:58:09;15.93;;;8.68;;
73428;SDS011;61643;49.564;17.412;2022-10-16T04:00:34;14.68;;;8.02;;
73428;SDS011;61643;49.564;17.412;2022-10-16T04:03:00;12.93;;;7.30;;
73428;SDS011;61643;49.564;17.412;2022-10-16T04:05:25;16.83;;;8.48;;
73428;SDS011;61643;49.564;17.412;2022-10-16T04:07:51;15.27;;;8.43;;
73428;SDS011;61643;49.564;17.412;2022-10-16T04:10:16;17.92;;;7.78;;
73428;SDS011;61643;49.564;17.412;2022-10-16T04:12:42;17.17;;;8.65;;
73428;SDS011;61643;49.564;17.412;2022-10-16T04:15:08;12.53;;;7.53;;
73428;SDS011;61643;49.564;17.412;2022-10-16T04:17:33;13.82;;;8.40;;
73428;SDS011;61643;49.564;17.412;2022-10-16T04:19:59;13.97;;;8.17;;
73428;SDS011;61643;49.564;17.412;2022-10-16T04:22:24;14.27;;;8.53;;
73428;SDS011;61643;49.564;17.412;2022-10-16T04:24:49;15.15;;;7.82;;
73428;SDS011;61643;49.564;17.412;2022-10-16T04:27:15;14.07;;;7.93;;
73428;SDS011;61643;49.564;17.412;2022-10-16T04:29:41;14.73;;;8.20;;
73428;SDS011;61643;49.564;17.412;2022-10-16T04:32:07;13.53;;;8.00;;
73428;SDS011;61643;49.564;17.412;2022-10-16T04:34:33;16.20;;;8.40;;
73428;SDS011;61643;49.564;17.412;2022-10-16T04:36:59;14.02;;;8.35;;
73428;SDS011;61643;49.564;17.412;2022-10-16T04:39:25;14.38;;;8.25;;
73428;SDS011;61643;49.564;17.412;2022-10-16T04:41:50;18.65;;;8.40;;
73428;SDS011;61643;49.564;17.412;2022-10-16T04:44:15;13.93;;;8.10;;
73428;SDS011;61643;49.564;17.412;2022-10-16T04:46:41;13.60;;;7.90;;
73428;SDS011;61643;49.564;17.412;2022-10-16T04:49:06;15.03;;;8.60;;
73428;SDS011;61643;49.564;17.412;2022-10-16T04:51:31;13.10;;;7.23;;
73428;SDS011;61643;49.564;17.412;2022-10-16T04:53:57;13.47;;;7.87;;
73428;SDS011;61643;49.564;17.412;2022-10-16T04:56:22;14.27;;;7.88;;
73428;SDS011;61643;49.564;17.412;2022-10-16T04:58:48;15.57;;;8.15;;
73428;SDS011;61643;49.564;17.412;2022-10-16T05:01:13;12.73;;;7.72;;
73428;SDS011;61643;49.564;17.412;2022-10-16T05:03:39;15.43;;;8.00;;
73428;SDS011;61643;49.564;17.412;2022-10-16T05:06:07;14.60;;;7.77;;
73428;SDS011;61643;49.564;17.412;2022-10-16T05:08:32;16.73;;;8.07;;
73428;SDS011;61643;49.564;17.412;2022-10-16T05:10:58;14.95;;;8.38;;
73428;SDS011;61643;49.564;17.412;2022-10-16T05:13:23;15.32;;;8.40;;
73428;SDS011;61643;49.564;17.412;2022-10-16T05:15:49;16.35;;;8.50;;
73428;SDS011;61643;49.564;17.412;2022-10-16T05:18:14;17.42;;;8.50;;
73428;SDS011;61643;49.564;17.412;2022-10-16T05:20:41;17.30;;;8.80;;
73428;SDS011;61643;49.564;17.412;2022-10-16T05:23:07;16.65;;;8.35;;
73428;SDS011;61643;49.564;17.412;2022-10-16T05:25:32;15.63;;;8.15;;
73428;SDS011;61643;49.564;17.412;2022-10-16T05:27:58;14.73;;;8.13;;
73428;SDS011;61643;49.564;17.412;2022-10-16T05:30:23;13.60;;;7.73;;
73428;SDS011;61643;49.564;17.412;2022-10-16T05:32:49;13.73;;;7.90;;
73428;SDS011;61643;49.564;17.412;2022-10-16T05:35:16;16.90;;;8.27;;
73428;SDS011;61643;49.564;17.412;2022-10-16T05:37:42;15.10;;;8.07;;
73428;SDS011;61643;49.564;17.412;2022-10-16T05:40:08;16.17;;;8.57;;
73428;SDS011;61643;49.564;17.412;2022-10-16T05:42:34;15.32;;;7.88;;
73428;SDS011;61643;49.564;17.412;2022-10-16T05:44:59;12.53;;;7.63;;
73428;SDS011;61643;49.564;17.412;2022-10-16T05:47:25;16.15;;;8.43;;
73428;SDS011;61643;49.564;17.412;2022-10-16T05:49:51;11.85;;;7.75;;
73428;SDS011;61643;49.564;17.412;2022-10-16T05:52:16;15.20;;;8.47;;
73428;SDS011;61643;49.564;17.412;2022-10-16T05:54:42;15.63;;;7.72;;
73428;SDS011;61643;49.564;17.412;2022-10-16T05:57:08;11.93;;;7.65;;
73428;SDS011;61643;49.564;17.412;2022-10-16T05:59:33;17.90;;;7.78;;
73428;SDS011;61643;49.564;17.412;2022-10-16T06:01:59;14.97;;;8.03;;
73428;SDS011;61643;49.564;17.412;2022-10-16T06:04:24;13.57;;;7.80;;
73428;SDS011;61643;49.564;17.412;2022-10-16T06:06:49;18.20;;;8.17;;
73428;SDS011;61643;49.564;17.412;2022-10-16T06:09:15;13.17;;;7.87;;
73428;SDS011;61643;49.564;17.412;2022-10-16T06:11:40;13.67;;;7.77;;
73428;SDS011;61643;49.564;17.412;2022-10-16T06:14:06;14.35;;;7.93;;
73428;SDS011;61643;49.564;17.412;2022-10-16T06:16:34;14.98;;;8.32;;
73428;SDS011;61643;49.564;17.412;2022-10-16T06:19:00;13.55;;;7.53;;
73428;SDS011;61643;49.564;17.412;2022-10-16T06:21:26;12.93;;;8.07;;
73428;SDS011;61643;49.564;17.412;2022-10-16T06:23:54;15.13;;;7.95;;
73428;SDS011;61643;49.564;17.412;2022-10-16T06:26:21;16.52;;;8.65;;
73428;SDS011;61643;49.564;17.412;2022-10-16T06:28:48;13.43;;;7.97;;
73428;SDS011;61643;49.564;17.412;2022-10-16T06:31:14;16.45;;;8.15;;
73428;SDS011;61643;49.564;17.412;2022-10-16T06:33:40;16.10;;;8.70;;
73428;SDS011;61643;49.564;17.412;2022-10-16T06:36:07;14.07;;;8.20;;
73428;SDS011;61643;49.564;17.412;2022-10-16T06:38:34;16.67;;;8.40;;
73428;SDS011;61643;49.564;17.412;2022-10-16T06:41:00;14.02;;;8.07;;
73428;SDS011;61643;49.564;17.412;2022-10-16T06:43:27;14.75;;;8.45;;
73428;SDS011;61643;49.564;17.412;2022-10-16T06:45:57;14.20;;;8.38;;
73428;SDS011;61643;49.564;17.412;2022-10-16T06:48:23;12.07;;;8.05;;
73428;SDS011;61643;49.564;17.412;2022-10-16T06:51:22;13.98;;;8.40;;
73428;SDS011;61643;49.564;17.412;2022-10-16T06:53:43;15.75;;;8.82;;
73428;SDS011;61643;49.564;17.412;2022-10-16T06:56:15;15.20;;;8.63;;
73428;SDS011;61643;49.564;17.412;2022-10-16T06:58:42;16.58;;;8.10;;
73428;SDS011;61643;49.564;17.412;2022-10-16T07:01:09;14.82;;;8.38;;
73428;SDS011;61643;49.564;17.412;2022-10-16T07:03:39;13.60;;;7.88;;
73428;SDS011;61643;49.564;17.412;2022-10-16T07:06:06;15.27;;;8.38;;
73428;SDS011;61643;49.564;17.412;2022-10-16T07:08:34;16.65;;;8.48;;
73428;SDS011;61643;49.564;17.412;2022-10-16T07:11:02;13.73;;;8.02;;
73428;SDS011;61643;49.564;17.412;2022-10-16T07:13:35;13.48;;;8.52;;
73428;SDS011;61643;49.564;17.412;2022-10-16T07:16:10;14.50;;;7.63;;
73428;SDS011;61643;49.564;17.412;2022-10-16T07:18:37;14.02;;;7.70;;
73428;SDS011;61643;49.564;17.412;2022-10-16T07:21:05;15.80;;;7.00;;
73428;SDS011;61643;49.564;17.412;2022-10-16T07:23:32;12.95;;;7.65;;
73428;SDS011;61643;49.564;17.412;2022-10-16T07:25:58;13.75;;;8.07;;
73428;SDS011;61643;49.564;17.412;2022-10-16T07:28:23;16.13;;;8.23;;
73428;SDS011;61643;49.564;17.412;2022-10-16T07:30:48;14.60;;;8.73;;
73428;SDS011;61643;49.564;17.412;2022-10-16T07:33:14;16.70;;;10.25;;
73428;SDS011;61643;49.564;17.412;2022-10-16T07:36:00;15.88;;;10.95;;
73428;SDS011;61643;49.564;17.412;2022-10-16T07:38:25;13.43;;;7.50;;
73428;SDS011;61643;49.564;17.412;2022-10-16T07:40:57;17.52;;;7.68;;
73428;SDS011;61643;49.564;17.412;2022-10-16T07:43:25;16.50;;;7.88;;
73428;SDS011;61643;49.564;17.412;2022-10-16T07:45:51;14.15;;;7.63;;
73428;SDS011;61643;49.564;17.412;2022-10-16T07:48:16;11.55;;;7.85;;
73428;SDS011;61643;49.564;17.412;2022-10-16T07:50:43;13.77;;;8.18;;
73428;SDS011;61643;49.564;17.412;2022-10-16T07:53:08;13.60;;;7.90;;
73428;SDS011;61643;49.564;17.412;2022-10-16T07:55:34;14.30;;;8.07;;
73428;SDS011;61643;49.564;17.412;2022-10-16T07:57:59;13.50;;;8.00;;
73428;SDS011;61643;49.564;17.412;2022-10-16T08:00:25;13.83;;;7.97;;
73428;SDS011;61643;49.564;17.412;2022-10-16T08:02:50;12.73;;;7.70;;
73428;SDS011;61643;49.564;17.412;2022-10-16T08:05:15;13.27;;;7.67;;
73428;SDS011;61643;49.564;17.412;2022-10-16T08:07:41;14.27;;;8.33;;
73428;SDS011;61643;49.564;17.412;2022-10-16T08:10:06;13.03;;;8.00;;
73428;SDS011;61643;49.564;17.412;2022-10-16T08:12:35;14.07;;;7.70;;
73428;SDS011;61643;49.564;17.412;2022-10-16T08:15:01;14.93;;;8.23;;
73428;SDS011;61643;49.564;17.412;2022-10-16T08:17:26;11.20;;;7.63;;
73428;SDS011;61643;49.564;17.412;2022-10-16T08:19:51;12.83;;;8.40;;
73428;SDS011;61643;49.564;17.412;2022-10-16T08:22:17;19.70;;;8.57;;
73428;SDS011;61643;49.564;17.412;2022-10-16T08:24:42;15.07;;;8.45;;
73428;SDS011;61643;49.564;17.412;2022-10-16T08:27:07;16.67;;;8.67;;
73428;SDS011;61643;49.564;17.412;2022-10-16T08:29:34;14.65;;;9.35;;
73428;SDS011;61643;49.564;17.412;2022-10-16T08:31:59;16.20;;;9.35;;
73428;SDS011;61643;49.564;17.412;2022-10-16T08:34:24;14.40;;;8.60;;
73428;SDS011;61643;49.564;17.412;2022-10-16T08:36:52;17.47;;;9.13;;
73428;SDS011;61643;49.564;17.412;2022-10-16T08:39:18;14.25;;;7.82;;
73428;SDS011;61643;49.564;17.412;2022-10-16T08:47:11;13.02;;;8.27;;
73428;SDS011;61643;49.564;17.412;2022-10-16T08:49:38;17.15;;;8.73;;
73428;SDS011;61643;49.564;17.412;2022-10-16T08:52:10;13.85;;;8.30;;
73428;SDS011;61643;49.564;17.412;2022-10-16T08:54:41;15.32;;;8.40;;
73428;SDS011;61643;49.564;17.412;2022-10-16T08:57:11;11.48;;;8.10;;
73428;SDS011;61643;49.564;17.412;2022-10-16T08:59:39;15.07;;;8.85;;
73428;SDS011;61643;49.564;17.412;2022-10-16T09:02:13;17.38;;;9.35;;
73428;SDS011;61643;49.564;17.412;2022-10-16T09:07:35;16.52;;;8.75;;
73428;SDS011;61643;49.564;17.412;2022-10-16T09:12:57;14.52;;;8.07;;
73428;SDS011;61643;49.564;17.412;2022-10-16T09:15:48;16.17;;;9.10;;
73428;SDS011;61643;49.564;17.412;2022-10-16T09:21:15;16.05;;;8.90;;
73428;SDS011;61643;49.564;17.412;2022-10-16T09:23:46;13.00;;;8.32;;
73428;SDS011;61643;49.564;17.412;2022-10-16T09:26:13;14.60;;;8.50;;
73428;SDS011;61643;49.564;17.412;2022-10-16T09:28:41;12.90;;;8.63;;
73428;SDS011;61643;49.564;17.412;2022-10-16T09:31:25;13.55;;;8.65;;
73428;SDS011;61643;49.564;17.412;2022-10-16T09:33:52;13.88;;;8.32;;
73428;SDS011;61643;49.564;17.412;2022-10-16T09:36:22;13.13;;;7.72;;
73428;SDS011;61643;49.564;17.412;2022-10-16T09:39:00;12.82;;;8.27;;
73428;SDS011;61643;49.564;17.412;2022-10-16T09:41:28;13.95;;;8.43;;
73428;SDS011;61643;49.564;17.412;2022-10-16T09:43:54;15.35;;;8.95;;
73428;SDS011;61643;49.564;17.412;2022-10-16T09:46:30;13.80;;;8.43;;
73428;SDS011;61643;49.564;17.412;2022-10-16T09:49:00;13.63;;;8.32;;
73428;SDS011;61643;49.564;17.412;2022-10-16T09:51:34;19.00;;;9.38;;
73428;SDS011;61643;49.564;17.412;2022-10-16T09:56:33;13.02;;;8.73;;
73428;SDS011;61643;49.564;17.412;2022-10-16T09:59:02;16.00;;;8.02;;
73428;SDS011;61643;49.564;17.412;2022-10-16T10:01:44;13.60;;;8.60;;
73428;SDS011;61643;49.564;17.412;2022-10-16T10:04:12;13.10;;;8.35;;
73428;SDS011;61643;49.564;17.412;2022-10-16T10:06:42;16.55;;;8.88;;
73428;SDS011;61643;49.564;17.412;2022-10-16T10:19:29;13.57;;;8.38;;
73428;SDS011;61643;49.564;17.412;2022-10-16T10:21:55;17.23;;;8.65;;
73428;SDS011;61643;49.564;17.412;2022-10-16T10:24:20;15.63;;;8.55;;
73428;SDS011;61643;49.564;17.412;2022-10-16T10:29:19;13.37;;;8.37;;
73428;SDS011;61643;49.564;17.412;2022-10-16T10:32:12;17.90;;;8.55;;
73428;SDS011;61643;49.564;17.412;2022-10-16T10:35:42;13.25;;;8.18;;
73428;SDS011;61643;49.564;17.412;2022-10-16T10:40:39;13.80;;;7.90;;
73428;SDS011;61643;49.564;17.412;2022-10-16T10:46:02;12.90;;;7.97;;
73428;SDS011;61643;49.564;17.412;2022-10-16T10:57:00;15.57;;;8.63;;
73428;SDS011;61643;49.564;17.412;2022-10-16T11:06:00;12.57;;;8.02;;
73428;SDS011;61643;49.564;17.412;2022-10-16T11:08:31;13.50;;;8.43;;
73428;SDS011;61643;49.564;17.412;2022-10-16T11:11:14;14.05;;;8.18;;
73428;SDS011;61643;49.564;17.412;2022-10-16T11:13:55;14.93;;;8.18;;
73428;SDS011;61643;49.564;17.412;2022-10-16T11:16:36;14.65;;;8.60;;
73428;SDS011;61643;49.564;17.412;2022-10-16T11:19:10;14.43;;;9.10;;
73428;SDS011;61643;49.564;17.412;2022-10-16T11:21:49;14.55;;;9.13;;
73428;SDS011;61643;49.564;17.412;2022-10-16T11:30:01;14.93;;;8.30;;
73428;SDS011;61643;49.564;17.412;2022-10-16T11:32:31;15.50;;;9.25;;
73428;SDS011;61643;49.564;17.412;2022-10-16T11:35:08;15.77;;;8.43;;
73428;SDS011;61643;49.564;17.412;2022-10-16T11:37:41;15.73;;;8.55;;
73428;SDS011;61643;49.564;17.412;2022-10-16T11:42:46;16.00;;;8.27;;
73428;SDS011;61643;49.564;17.412;2022-10-16T11:48:15;12.13;;;8.05;;
73428;SDS011;61643;49.564;17.412;2022-10-16T11:51:02;13.75;;;8.25;;
73428;SDS011;61643;49.564;17.412;2022-10-16T11:56:07;16.05;;;7.80;;
73428;SDS011;61643;49.564;17.412;2022-10-16T11:58:56;15.07;;;8.38;;
73428;SDS011;61643;49.564;17.412;2022-10-16T12:01:40;14.82;;;8.55;;
73428;SDS011;61643;49.564;17.412;2022-10-16T12:06:48;13.93;;;8.68;;
73428;SDS011;61643;49.564;17.412;2022-10-16T12:11:54;14.25;;;7.88;;
73428;SDS011;61643;49.564;17.412;2022-10-16T12:14:21;17.27;;;9.52;;
73428;SDS011;61643;49.564;17.412;2022-10-16T12:16:57;14.60;;;9.25;;
73428;SDS011;61643;49.564;17.412;2022-10-16T12:19:29;13.95;;;9.05;;
73428;SDS011;61643;49.564;17.412;2022-10-16T12:21:59;14.10;;;8.88;;
73428;SDS011;61643;49.564;17.412;2022-10-16T12:24:36;14.75;;;8.60;;
73428;SDS011;61643;49.564;17.412;2022-10-16T12:27:17;13.55;;;8.02;;
73428;SDS011;61643;49.564;17.412;2022-10-16T12:29:58;15.60;;;8.65;;
73428;SDS011;61643;49.564;17.412;2022-10-16T12:35:01;13.32;;;9.30;;
73428;SDS011;61643;49.564;17.412;2022-10-16T12:37:35;13.68;;;9.10;;
73428;SDS011;61643;49.564;17.412;2022-10-16T12:40:12;14.00;;;9.75;;
73428;SDS011;61643;49.564;17.412;2022-10-16T12:42:41;14.80;;;8.38;;
73428;SDS011;61643;49.564;17.412;2022-10-16T12:45:21;14.35;;;8.10;;
73428;SDS011;61643;49.564;17.412;2022-10-16T12:47:51;16.38;;;9.43;;
73428;SDS011;61643;49.564;17.412;2022-10-16T12:50:26;21.00;;;9.25;;
73428;SDS011;61643;49.564;17.412;2022-10-16T12:52:57;18.75;;;8.90;;
73428;SDS011;61643;49.564;17.412;2022-10-16T12:55:23;14.80;;;8.30;;
73428;SDS011;61643;49.564;17.412;2022-10-16T12:57:59;13.77;;;9.13;;
73428;SDS011;61643;49.564;17.412;2022-10-16T13:03:23;13.20;;;8.82;;
73428;SDS011;61643;49.564;17.412;2022-10-16T13:05:59;14.60;;;8.85;;
73428;SDS011;61643;49.564;17.412;2022-10-16T13:11:44;11.43;;;8.52;;
73428;SDS011;61643;49.564;17.412;2022-10-16T13:17:06;14.23;;;9.15;;
73428;SDS011;61643;49.564;17.412;2022-10-16T13:30:37;15.15;;;9.50;;
73428;SDS011;61643;49.564;17.412;2022-10-16T13:33:46;14.15;;;9.35;;
73428;SDS011;61643;49.564;17.412;2022-10-16T13:35:55;15.13;;;9.15;;
73428;SDS011;61643;49.564;17.412;2022-10-16T13:38:22;14.30;;;9.35;;
73428;SDS011;61643;49.564;17.412;2022-10-16T13:40:57;14.10;;;9.15;;
73428;SDS011;61643;49.564;17.412;2022-10-16T13:46:03;13.75;;;9.40;;
73428;SDS011;61643;49.564;17.412;2022-10-16T13:48:31;16.98;;;10.13;;
73428;SDS011;61643;49.564;17.412;2022-10-16T13:50:58;15.40;;;9.10;;
73428;SDS011;61643;49.564;17.412;2022-10-16T13:53:50;15.88;;;8.68;;
73428;SDS011;61643;49.564;17.412;2022-10-16T13:56:26;15.57;;;9.25;;
73428;SDS011;61643;49.564;17.412;2022-10-16T13:59:03;13.95;;;8.57;;
73428;SDS011;61643;49.564;17.412;2022-10-16T14:01:31;14.27;;;9.02;;
73428;SDS011;61643;49.564;17.412;2022-10-16T14:04:05;20.10;;;11.10;;
73428;SDS011;61643;49.564;17.412;2022-10-16T14:06:34;15.65;;;9.75;;
73428;SDS011;61643;49.564;17.412;2022-10-16T14:09:05;29.00;;;12.02;;
73428;SDS011;61643;49.564;17.412;2022-10-16T14:11:33;17.20;;;9.27;;
73428;SDS011;61643;49.564;17.412;2022-10-16T14:14:11;26.88;;;11.15;;
73428;SDS011;61643;49.564;17.412;2022-10-16T14:16:37;13.90;;;8.95;;
73428;SDS011;61643;49.564;17.412;2022-10-16T14:19:13;21.63;;;10.00;;
73428;SDS011;61643;49.564;17.412;2022-10-16T14:21:45;30.10;;;10.70;;
73428;SDS011;61643;49.564;17.412;2022-10-16T14:24:12;14.15;;;9.30;;
73428;SDS011;61643;49.564;17.412;2022-10-16T14:26:45;18.40;;;9.45;;
73428;SDS011;61643;49.564;17.412;2022-10-16T14:29:13;14.60;;;9.63;;
73428;SDS011;61643;49.564;17.412;2022-10-16T14:31:42;18.25;;;9.15;;
73428;SDS011;61643;49.564;17.412;2022-10-16T14:34:27;17.88;;;10.20;;
73428;SDS011;61643;49.564;17.412;2022-10-16T14:36:58;20.65;;;10.48;;
73428;SDS011;61643;49.564;17.412;2022-10-16T14:39:48;17.98;;;10.32;;
73428;SDS011;61643;49.564;17.412;2022-10-16T14:42:15;20.33;;;11.75;;
73428;SDS011;61643;49.564;17.412;2022-10-16T14:44:44;16.77;;;10.52;;
73428;SDS011;61643;49.564;17.412;2022-10-16T14:47:13;15.13;;;9.55;;
73428;SDS011;61643;49.564;17.412;2022-10-16T14:49:47;15.23;;;9.32;;
73428;SDS011;61643;49.564;17.412;2022-10-16T14:52:12;15.30;;;9.60;;
73428;SDS011;61643;49.564;17.412;2022-10-16T14:54:38;15.88;;;9.60;;
73428;SDS011;61643;49.564;17.412;2022-10-16T14:57:04;13.45;;;9.35;;
73428;SDS011;61643;49.564;17.412;2022-10-16T14:59:32;15.15;;;9.45;;
73428;SDS011;61643;49.564;17.412;2022-10-16T15:02:18;14.23;;;8.20;;
73428;SDS011;61643;49.564;17.412;2022-10-16T15:04:50;15.35;;;8.48;;
73428;SDS011;61643;49.564;17.412;2022-10-16T15:07:15;13.67;;;9.30;;
73428;SDS011;61643;49.564;17.412;2022-10-16T15:09:40;30.93;;;11.30;;
73428;SDS011;61643;49.564;17.412;2022-10-16T15:12:06;15.37;;;9.30;;
73428;SDS011;61643;49.564;17.412;2022-10-16T15:14:31;16.83;;;9.38;;
73428;SDS011;61643;49.564;17.412;2022-10-16T15:16:57;18.50;;;9.23;;
73428;SDS011;61643;49.564;17.412;2022-10-16T15:19:22;14.65;;;9.00;;
73428;SDS011;61643;49.564;17.412;2022-10-16T15:21:48;13.93;;;8.90;;
73428;SDS011;61643;49.564;17.412;2022-10-16T15:24:14;16.15;;;9.40;;
73428;SDS011;61643;49.564;17.412;2022-10-16T15:26:39;41.53;;;12.40;;
73428;SDS011;61643;49.564;17.412;2022-10-16T15:29:05;15.80;;;9.03;;
73428;SDS011;61643;49.564;17.412;2022-10-16T15:31:30;14.43;;;9.55;;
73428;SDS011;61643;49.564;17.412;2022-10-16T15:33:56;15.65;;;9.27;;
73428;SDS011;61643;49.564;17.412;2022-10-16T15:36:31;17.08;;;9.98;;
73428;SDS011;61643;49.564;17.412;2022-10-16T15:38:59;17.20;;;9.73;;
73428;SDS011;61643;49.564;17.412;2022-10-16T15:41:25;17.90;;;9.90;;
73428;SDS011;61643;49.564;17.412;2022-10-16T15:43:50;18.60;;;9.05;;
73428;SDS011;61643;49.564;17.412;2022-10-16T15:46:20;14.18;;;9.13;;
73428;SDS011;61643;49.564;17.412;2022-10-16T15:48:48;14.75;;;9.27;;
73428;SDS011;61643;49.564;17.412;2022-10-16T15:51:14;16.42;;;9.30;;
73428;SDS011;61643;49.564;17.412;2022-10-16T15:53:40;15.82;;;9.25;;
73428;SDS011;61643;49.564;17.412;2022-10-16T15:56:06;18.45;;;9.68;;
73428;SDS011;61643;49.564;17.412;2022-10-16T15:58:32;16.15;;;9.80;;
73428;SDS011;61643;49.564;17.412;2022-10-16T16:00:59;14.23;;;9.30;;
73428;SDS011;61643;49.564;17.412;2022-10-16T16:03:29;16.75;;;9.68;;
73428;SDS011;61643;49.564;17.412;2022-10-16T16:05:55;16.75;;;10.20;;
73428;SDS011;61643;49.564;17.412;2022-10-16T16:08:20;15.93;;;9.73;;
73428;SDS011;61643;49.564;17.412;2022-10-16T16:10:56;20.10;;;10.65;;
73428;SDS011;61643;49.564;17.412;2022-10-16T16:13:25;17.58;;;10.00;;
73428;SDS011;61643;49.564;17.412;2022-10-16T16:15:50;15.88;;;9.68;;
73428;SDS011;61643;49.564;17.412;2022-10-16T16:18:15;21.47;;;9.90;;
73428;SDS011;61643;49.564;17.412;2022-10-16T16:20:41;18.63;;;10.50;;
73428;SDS011;61643;49.564;17.412;2022-10-16T16:23:06;16.83;;;9.73;;
73428;SDS011;61643;49.564;17.412;2022-10-16T16:25:32;17.42;;;9.95;;
73428;SDS011;61643;49.564;17.412;2022-10-16T16:27:57;17.47;;;10.37;;
73428;SDS011;61643;49.564;17.412;2022-10-16T16:30:22;16.43;;;9.97;;
73428;SDS011;61643;49.564;17.412;2022-10-16T16:32:48;17.43;;;9.77;;
73428;SDS011;61643;49.564;17.412;2022-10-16T16:35:13;18.77;;;10.35;;